Ana Sayfa
METAR-TAF:

METAR-TAF

Havaalanları :

Çiğli Hava Üssü

İzmir, Türkiye

Enlem: 38-30N, Boylam: 027-01E, yükseklik: 5 m

METAR: eksik

Saat: 10:24 (07:24 UTC)

Tahmin

Rapor saat 04:40 UTC de 2 saat ve 44 dakika önce yapıldı.
Ayın 25'si saat 06 UTC'den ayın 25'si saat 15 UTC'ye kadar geçerli Tahmin
Rüzgar kuzey/kuzeydoğudan 7 kt
Görüş mesafesi 10 km veya daha fazla
1500 m altında bulut yok ve kümülonimbus yok

TAF: LTBL 250440Z 2506/2515 02007KT CAVOK

4.000'den fazla havaalanı için hava durumu gözlemleri ve tahminleri (METAR ve TAF raporları).

Kullanılabilir istasyonlar harita üzerinde sarı ve kırmızı noktalarla gösterilir.

İstasyonun adını görmek için fareyi noktanın üzerinde gezdirin.

Sonrasında hava gözlem ve tahminlerini görmek için tıklayın.

Haritayı değiştirmek için: yaklaştırmak için siyah artı işaretli yeşil düğmeye ve uzaklaştırmak için de eksi işaretli düğmeye hızla tıklayın; bitişik haritalar için yeşil okları kullanın.


METAR-TAF: